createdAt,value
2017-02-17T00:00:04.216Z,1002.94
2017-02-17T00:00:44.595Z,1002.94
2017-02-17T00:01:25.043Z,1002.91
2017-02-17T00:02:05.475Z,1002.96
2017-02-17T00:02:46.018Z,1002.93
2017-02-17T00:03:26.525Z,1002.91
2017-02-17T00:04:07.027Z,1002.92
2017-02-17T00:04:47.481Z,1002.94
2017-02-17T00:05:27.936Z,1002.95
2017-02-17T00:06:08.351Z,1002.92
2017-02-17T00:06:48.817Z,1002.96
2017-02-17T00:07:29.339Z,1002.96
2017-02-17T00:08:09.830Z,1003
2017-02-17T00:08:50.287Z,1003.02
2017-02-17T00:09:30.809Z,1003.01
2017-02-17T00:10:11.269Z,1003
2017-02-17T00:10:51.660Z,1003.04
2017-02-17T00:11:32.116Z,1003.06
2017-02-17T00:12:12.596Z,1003.08
2017-02-17T00:12:53.042Z,1003.1
2017-02-17T00:13:33.474Z,1003.13
2017-02-17T00:14:13.914Z,1003.12
2017-02-17T00:14:54.386Z,1003.11
2017-02-17T00:15:34.848Z,1003.15
2017-02-17T00:16:15.284Z,1003.18
2017-02-17T00:16:56.041Z,1003.16
2017-02-17T00:17:36.402Z,1003.13
2017-02-17T00:18:16.829Z,1003.16
2017-02-17T00:18:57.279Z,1003.11
2017-02-17T00:19:37.735Z,1003.14
2017-02-17T00:20:18.183Z,1003.13
2017-02-17T00:20:58.623Z,1003.14
2017-02-17T00:21:39.065Z,1003.14
2017-02-17T00:22:19.515Z,1003.18
2017-02-17T00:23:00.003Z,1003.17
2017-02-17T00:23:40.429Z,1003.17
2017-02-17T00:24:21.121Z,1003.18
2017-02-17T00:25:02.357Z,1003.15
2017-02-17T00:25:42.770Z,1003.11
2017-02-17T00:26:23.226Z,1003.11
2017-02-17T00:27:03.739Z,1003.08
2017-02-17T00:27:44.170Z,1003.07
2017-02-17T00:28:24.593Z,1003.06
2017-02-17T00:29:05.085Z,1003.05
2017-02-17T00:29:45.561Z,1003.04
2017-02-17T00:30:26.009Z,1003.05
2017-02-17T00:31:06.462Z,1003.07
2017-02-17T00:31:46.948Z,1003.08
2017-02-17T00:32:27.431Z,1003.08
2017-02-17T00:33:07.889Z,1003.05
2017-02-17T00:33:48.297Z,1003.07
2017-02-17T00:34:29.020Z,1003.08
2017-02-17T00:35:09.882Z,1003.08
2017-02-17T00:35:50.340Z,1003.04
2017-02-17T00:36:30.780Z,1003.06
2017-02-17T00:37:11.395Z,1003.03
2017-02-17T00:37:51.789Z,1003.03
2017-02-17T00:38:32.255Z,1003.02
2017-02-17T00:39:12.757Z,1003.05
2017-02-17T00:39:53.231Z,1003.04
2017-02-17T00:40:33.707Z,1003.02
2017-02-17T00:41:14.153Z,1003
2017-02-17T00:41:54.894Z,1002.97
2017-02-17T00:42:35.332Z,1002.93
2017-02-17T00:43:15.773Z,1002.96
2017-02-17T00:43:56.248Z,1002.95
2017-02-17T00:44:36.721Z,1002.96
2017-02-17T00:45:17.706Z,1002.99
2017-02-17T00:45:59.037Z,1002.99
2017-02-17T00:46:39.754Z,1003.02
2017-02-17T00:47:20.185Z,1003.03
2017-02-17T00:48:01.641Z,1003.03
2017-02-17T00:48:42.073Z,1003.06
2017-02-17T00:49:23.191Z,1003.05
2017-02-17T00:50:04.961Z,1003.08
2017-02-17T00:50:45.506Z,1003.04
2017-02-17T00:51:25.879Z,1003.09
2017-02-17T00:52:06.336Z,1003.1
2017-02-17T00:52:47.091Z,1003.1
2017-02-17T00:53:27.581Z,1003.11
2017-02-17T00:54:08.030Z,1003.09
2017-02-17T00:54:48.465Z,1003.13
2017-02-17T00:55:28.874Z,1003.09
2017-02-17T00:56:09.356Z,1003.07
2017-02-17T00:56:49.774Z,1003.08
2017-02-17T00:57:30.214Z,1003.09
2017-02-17T00:58:10.640Z,1003.13
2017-02-17T00:58:51.145Z,1003.12
2017-02-17T00:59:31.575Z,1003.13
2017-02-17T01:00:12.058Z,1003.12
2017-02-17T01:00:52.463Z,1003.11
2017-02-17T01:01:32.946Z,1003.09
2017-02-17T01:02:13.365Z,1003.07
2017-02-17T01:02:53.807Z,1003.07
2017-02-17T01:03:34.269Z,1003.1
2017-02-17T01:04:14.742Z,1003.11
2017-02-17T01:04:55.160Z,1003.14
2017-02-17T01:05:35.661Z,1003.12
2017-02-17T01:06:16.110Z,1003.15
2017-02-17T01:06:56.567Z,1003.15
2017-02-17T01:07:36.968Z,1003.17
2017-02-17T01:08:17.461Z,1003.16
2017-02-17T01:08:57.943Z,1003.1
2017-02-17T01:09:38.367Z,1003.09
2017-02-17T01:10:18.815Z,1003.06
2017-02-17T01:10:59.251Z,1003.07
2017-02-17T01:11:39.716Z,1003.05
2017-02-17T01:12:20.162Z,1003.07
2017-02-17T01:13:00.610Z,1003.11
2017-02-17T01:13:41.017Z,1003.1
2017-02-17T01:14:21.545Z,1003.14
2017-02-17T01:15:02.048Z,1003.12
2017-02-17T01:15:42.452Z,1003.14
2017-02-17T01:16:22.897Z,1003.12
2017-02-17T01:17:03.438Z,1003.14
2017-02-17T01:17:43.887Z,1003.13
2017-02-17T01:18:24.345Z,1003.11
2017-02-17T01:19:04.790Z,1003.07
2017-02-17T01:19:45.231Z,1003.13
2017-02-17T01:20:25.663Z,1003.1
2017-02-17T01:21:06.131Z,1003.11
2017-02-17T01:21:46.556Z,1003.09
2017-02-17T01:22:26.999Z,1003.12
2017-02-17T01:23:07.469Z,1003.11
2017-02-17T01:23:47.948Z,1003.15
2017-02-17T01:24:28.377Z,1003.13
2017-02-17T01:25:08.807Z,1003.12
2017-02-17T01:25:49.312Z,1003.13
2017-02-17T01:26:29.744Z,1003.11
2017-02-17T01:27:10.246Z,1003.11
2017-02-17T01:27:50.787Z,1003.1
2017-02-17T01:28:31.224Z,1003.09
2017-02-17T01:29:11.709Z,1003.09
2017-02-17T01:29:52.109Z,1003.07
2017-02-17T01:30:32.599Z,1003.03
2017-02-17T01:31:13.038Z,1003.07
2017-02-17T01:31:53.577Z,1003.05
2017-02-17T01:32:33.966Z,1003.07
2017-02-17T01:33:14.440Z,1003.04
2017-02-17T01:33:54.886Z,1003.02
2017-02-17T01:34:35.331Z,1003.02
2017-02-17T01:35:15.809Z,1003
2017-02-17T01:35:56.210Z,1003
2017-02-17T01:36:36.680Z,1002.93
2017-02-17T01:37:17.137Z,1002.96
2017-02-17T01:37:57.582Z,1002.96
2017-02-17T01:38:38.031Z,1002.97
2017-02-17T01:39:18.440Z,1002.95
2017-02-17T01:39:58.892Z,1002.94
2017-02-17T01:40:39.299Z,1002.96
2017-02-17T01:41:19.771Z,1002.96
2017-02-17T01:42:00.272Z,1002.97
2017-02-17T01:42:40.758Z,1002.98
2017-02-17T01:43:21.230Z,1003.01
2017-02-17T01:44:01.648Z,1003.02
2017-02-17T01:44:42.134Z,1003.02
2017-02-17T01:45:22.601Z,1002.99
2017-02-17T01:46:03.034Z,1003.03
2017-02-17T01:46:43.489Z,1002.99
2017-02-17T01:47:23.950Z,1003.01
2017-02-17T01:48:04.363Z,1002.98
2017-02-17T01:48:44.852Z,1002.94
2017-02-17T01:49:25.238Z,1002.94
2017-02-17T01:50:05.702Z,1002.92
2017-02-17T01:50:46.151Z,1002.91
2017-02-17T01:51:26.684Z,1002.88
2017-02-17T01:52:07.069Z,1002.85
2017-02-17T01:52:47.535Z,1002.89
2017-02-17T01:53:28.060Z,1002.89
2017-02-17T01:54:08.472Z,1002.88
2017-02-17T01:54:48.972Z,1002.9
2017-02-17T01:55:29.403Z,1002.89
2017-02-17T01:56:09.869Z,1002.84
2017-02-17T01:56:50.342Z,1002.85
2017-02-17T01:57:30.797Z,1002.82
2017-02-17T01:58:11.253Z,1002.81
2017-02-17T01:58:51.701Z,1002.77
2017-02-17T01:59:32.154Z,1002.77
2017-02-17T02:00:12.567Z,1002.77
2017-02-17T02:00:53.008Z,1002.73
2017-02-17T02:01:33.509Z,1002.79
2017-02-17T02:02:13.898Z,1002.8
2017-02-17T02:02:54.335Z,1002.79
2017-02-17T02:03:34.815Z,1002.79
2017-02-17T02:04:15.287Z,1002.82
2017-02-17T02:04:55.727Z,1002.81
2017-02-17T02:05:36.216Z,1002.82
2017-02-17T02:06:16.694Z,1002.82
2017-02-17T02:06:57.120Z,1002.79
2017-02-17T02:07:37.572Z,1002.75
2017-02-17T02:08:18.080Z,1002.76
2017-02-17T02:08:58.503Z,1002.79
2017-02-17T02:09:38.942Z,1002.81
2017-02-17T02:10:19.469Z,1002.8
2017-02-17T02:10:59.879Z,1002.78
2017-02-17T02:11:40.511Z,1002.77
2017-02-17T02:12:20.967Z,1002.79
2017-02-17T02:13:01.472Z,1002.78
2017-02-17T02:13:41.926Z,1002.81
2017-02-17T02:14:22.358Z,1002.82
2017-02-17T02:15:02.847Z,1002.87
2017-02-17T02:15:43.372Z,1002.84
2017-02-17T02:16:23.805Z,1002.88
2017-02-17T02:17:04.247Z,1002.85
2017-02-17T02:17:44.681Z,1002.87
2017-02-17T02:18:25.138Z,1002.81
2017-02-17T02:19:05.593Z,1002.81
2017-02-17T02:19:46.042Z,1002.79
2017-02-17T02:20:26.510Z,1002.8
2017-02-17T02:21:06.963Z,1002.8
2017-02-17T02:21:47.418Z,1002.83
2017-02-17T02:22:27.852Z,1002.83
2017-02-17T02:23:08.302Z,1002.87
2017-02-17T02:23:48.720Z,1002.85
2017-02-17T02:24:29.181Z,1002.87
2017-02-17T02:25:09.639Z,1002.89
2017-02-17T02:25:50.075Z,1002.83
2017-02-17T02:26:30.543Z,1002.88
2017-02-17T02:27:11.036Z,1002.82
2017-02-17T02:27:51.479Z,1002.81
2017-02-17T02:28:31.943Z,1002.79
2017-02-17T02:29:12.402Z,1002.78
2017-02-17T02:29:52.837Z,1002.76
2017-02-17T02:30:33.284Z,1002.8
2017-02-17T02:31:13.745Z,1002.78
2017-02-17T02:31:54.219Z,1002.8
2017-02-17T02:32:34.687Z,1002.78
2017-02-17T02:33:15.099Z,1002.77
2017-02-17T02:33:55.525Z,1002.75
2017-02-17T02:34:35.993Z,1002.69
2017-02-17T02:35:16.452Z,1002.73
2017-02-17T02:35:56.924Z,1002.68
2017-02-17T02:36:37.369Z,1002.68
2017-02-17T02:37:17.821Z,1002.67
2017-02-17T02:37:58.230Z,1002.66
2017-02-17T02:38:38.729Z,1002.65
2017-02-17T02:39:19.196Z,1002.66
2017-02-17T02:39:59.621Z,1002.65
2017-02-17T02:40:40.116Z,1002.63
2017-02-17T02:41:20.611Z,1002.66
2017-02-17T02:42:01.054Z,1002.61
2017-02-17T02:42:41.515Z,1002.63
2017-02-17T02:43:22.003Z,1002.59
2017-02-17T02:44:02.463Z,1002.59
2017-02-17T02:44:42.893Z,1002.57
2017-02-17T02:45:23.336Z,1002.61
2017-02-17T02:46:03.774Z,1002.58
2017-02-17T02:46:44.243Z,1002.61
2017-02-17T02:47:24.656Z,1002.61
2017-02-17T02:48:05.130Z,1002.59
2017-02-17T02:48:45.555Z,1002.59
2017-02-17T02:49:26.006Z,1002.58
2017-02-17T02:50:06.505Z,1002.55
2017-02-17T02:50:46.947Z,1002.51
2017-02-17T02:51:27.343Z,1002.49
2017-02-17T02:52:07.847Z,1002.46
2017-02-17T02:52:48.756Z,1002.41
2017-02-17T02:53:29.255Z,1002.45
2017-02-17T02:54:09.722Z,1002.4
2017-02-17T02:54:50.152Z,1002.35
2017-02-17T02:55:30.593Z,1002.34
2017-02-17T02:56:11.051Z,1002.31
2017-02-17T02:56:51.510Z,1002.29
2017-02-17T02:57:32.014Z,1002.34
2017-02-17T02:58:12.498Z,1002.32
2017-02-17T02:58:52.976Z,1002.31
2017-02-17T02:59:33.427Z,1002.36
2017-02-17T03:00:13.876Z,1002.3
2017-02-17T03:00:54.357Z,1002.32
2017-02-17T03:01:34.805Z,1002.36
2017-02-17T03:02:15.282Z,1002.32
2017-02-17T03:02:55.746Z,1002.34
2017-02-17T03:03:36.190Z,1002.31
2017-02-17T03:04:16.590Z,1002.34
2017-02-17T03:04:57.070Z,1002.32
2017-02-17T03:05:37.541Z,1002.31
2017-02-17T03:06:18.000Z,1002.28
2017-02-17T03:06:58.437Z,1002.26
2017-02-17T03:07:38.909Z,1002.25
2017-02-17T03:08:19.345Z,1002.23
2017-02-17T03:08:59.794Z,1002.25
2017-02-17T03:09:40.274Z,1002.21
2017-02-17T03:10:20.739Z,1002.22
2017-02-17T03:11:01.227Z,1002.24
2017-02-17T03:11:41.660Z,1002.22
2017-02-17T03:12:22.082Z,1002.23
2017-02-17T03:13:02.657Z,1002.19
2017-02-17T03:13:43.108Z,1002.2
2017-02-17T03:14:23.520Z,1002.18
2017-02-17T03:15:03.997Z,1002.22
2017-02-17T03:15:44.455Z,1002.17
2017-02-17T03:16:24.961Z,1002.2
2017-02-17T03:17:05.444Z,1002.18
2017-02-17T03:17:45.858Z,1002.22
2017-02-17T03:18:26.377Z,1002.28
2017-02-17T03:19:06.833Z,1002.29
2017-02-17T03:19:47.257Z,1002.31
2017-02-17T03:20:27.734Z,1002.27
2017-02-17T03:21:08.168Z,1002.3
2017-02-17T03:21:48.601Z,1002.34
2017-02-17T03:22:29.037Z,1002.35
2017-02-17T03:23:09.483Z,1002.37
2017-02-17T03:23:49.904Z,1002.37
2017-02-17T03:24:30.383Z,1002.35
2017-02-17T03:25:10.884Z,1002.37
2017-02-17T03:25:51.328Z,1002.39
2017-02-17T03:26:31.863Z,1002.39
2017-02-17T03:27:12.335Z,1002.38
2017-02-17T03:27:52.775Z,1002.41
2017-02-17T03:28:33.217Z,1002.39
2017-02-17T03:29:13.647Z,1002.4
2017-02-17T03:29:54.112Z,1002.39
2017-02-17T03:30:34.572Z,1002.38
2017-02-17T03:31:15.028Z,1002.38
2017-02-17T03:31:55.527Z,1002.39
2017-02-17T03:32:35.995Z,1002.4
2017-02-17T03:33:16.448Z,1002.38
2017-02-17T03:33:56.928Z,1002.39
2017-02-17T03:34:37.352Z,1002.36
2017-02-17T03:35:17.823Z,1002.35
2017-02-17T03:35:58.273Z,1002.36
2017-02-17T03:36:38.712Z,1002.38
2017-02-17T03:37:19.186Z,1002.37
2017-02-17T03:37:59.652Z,1002.4
2017-02-17T03:38:40.100Z,1002.34
2017-02-17T03:39:20.492Z,1002.31
2017-02-17T03:40:00.983Z,1002.33
2017-02-17T03:40:41.401Z,1002.34
2017-02-17T03:41:21.856Z,1002.3
2017-02-17T03:42:02.343Z,1002.28
2017-02-17T03:42:42.804Z,1002.25
2017-02-17T03:43:23.245Z,1002.23
2017-02-17T03:44:03.687Z,1002.23
2017-02-17T03:44:44.116Z,1002.19
2017-02-17T03:45:24.572Z,1002.22
2017-02-17T03:46:05.024Z,1002.18
2017-02-17T03:46:45.470Z,1002.14
2017-02-17T03:47:25.960Z,1002.17
2017-02-17T03:48:06.373Z,1002.12
2017-02-17T03:48:46.849Z,1002.18
2017-02-17T03:49:27.261Z,1002.14
2017-02-17T03:50:07.711Z,1002.17
2017-02-17T03:50:48.177Z,1002.16
2017-02-17T03:51:28.662Z,1002.18
2017-02-17T03:52:09.088Z,1002.16
2017-02-17T03:52:49.566Z,1002.19
2017-02-17T03:53:30.029Z,1002.22
2017-02-17T03:54:10.468Z,1002.22
2017-02-17T03:54:50.934Z,1002.23
2017-02-17T03:55:31.365Z,1002.26
2017-02-17T03:56:11.816Z,1002.31
2017-02-17T03:56:52.315Z,1002.32
2017-02-17T03:57:32.725Z,1002.27
2017-02-17T03:58:13.221Z,1002.23
2017-02-17T03:58:53.714Z,1002.26
2017-02-17T03:59:34.136Z,1002.2
2017-02-17T04:00:14.643Z,1002.24
2017-02-17T04:00:55.058Z,1002.24
2017-02-17T04:01:35.501Z,1002.2
2017-02-17T04:02:15.958Z,1002.25
2017-02-17T04:02:56.417Z,1002.24
2017-02-17T04:03:36.887Z,1002.26
2017-02-17T04:04:17.330Z,1002.24
2017-02-17T04:04:57.772Z,1002.28
2017-02-17T04:05:38.230Z,1002.24
2017-02-17T04:06:18.744Z,1002.27
2017-02-17T04:06:59.206Z,1002.24
2017-02-17T04:07:39.626Z,1002.21
2017-02-17T04:08:20.088Z,1002.27
2017-02-17T04:09:00.567Z,1002.27
2017-02-17T04:09:41.037Z,1002.28
2017-02-17T04:10:21.444Z,1002.24
2017-02-17T04:11:01.897Z,1002.22
2017-02-17T04:11:42.363Z,1002.26
2017-02-17T04:12:22.791Z,1002.26
2017-02-17T04:13:03.249Z,1002.23
2017-02-17T04:13:43.705Z,1002.26
2017-02-17T04:14:24.154Z,1002.23
2017-02-17T04:15:04.600Z,1002.22
2017-02-17T04:15:45.001Z,1002.22
2017-02-17T04:16:25.436Z,1002.22
2017-02-17T04:17:05.893Z,1002.22
2017-02-17T04:17:46.352Z,1002.19
2017-02-17T04:18:26.770Z,1002.21
2017-02-17T04:19:07.274Z,1002.22
2017-02-17T04:19:47.722Z,1002.19
2017-02-17T04:20:28.155Z,1002.22
2017-02-17T04:21:08.622Z,1002.23
2017-02-17T04:21:49.082Z,1002.23
2017-02-17T04:22:29.513Z,1002.21
2017-02-17T04:23:09.962Z,1002.2
2017-02-17T04:23:50.384Z,1002.23
2017-02-17T04:24:30.827Z,1002.18
2017-02-17T04:25:11.320Z,1002.2
2017-02-17T04:25:51.808Z,1002.18
2017-02-17T04:26:32.276Z,1002.2
2017-02-17T04:27:12.700Z,1002.16
2017-02-17T04:27:53.179Z,1002.17
2017-02-17T04:28:33.641Z,1002.17
2017-02-17T04:29:14.058Z,1002.14
2017-02-17T04:29:54.516Z,1002.13
2017-02-17T04:30:34.983Z,1002.12
2017-02-17T04:31:15.473Z,1002.09
2017-02-17T04:31:56.025Z,1002.1
2017-02-17T04:32:36.429Z,1002.1
2017-02-17T04:33:16.868Z,1002.12
2017-02-17T04:33:57.341Z,1002.11
2017-02-17T04:34:37.786Z,1002.12
2017-02-17T04:35:18.227Z,1002.13
2017-02-17T04:35:58.673Z,1002.11
2017-02-17T04:36:39.196Z,1002.15
2017-02-17T04:37:19.613Z,1002.13
2017-02-17T04:38:00.070Z,1002.14
2017-02-17T04:38:40.531Z,1002.12
2017-02-17T04:39:20.983Z,1002.13
2017-02-17T04:40:02.874Z,1002.14
2017-02-17T04:40:43.349Z,1002.11
2017-02-17T04:41:23.855Z,1002.1
2017-02-17T04:42:04.365Z,1002.12
2017-02-17T04:42:44.885Z,1002.14
2017-02-17T04:43:25.355Z,1002.13
2017-02-17T04:44:05.859Z,1002.13
2017-02-17T04:44:46.281Z,1002.11
2017-02-17T04:45:26.725Z,1002.12
2017-02-17T04:46:07.157Z,1002.13
2017-02-17T04:46:47.628Z,1002.1
2017-02-17T04:47:28.089Z,1002.13
2017-02-17T04:48:08.695Z,1002.14
2017-02-17T04:48:49.145Z,1002.14
2017-02-17T04:49:29.633Z,1002.13
2017-02-17T04:50:10.064Z,1002.15
2017-02-17T04:50:50.514Z,1002.14
2017-02-17T04:51:30.929Z,1002.13
2017-02-17T04:52:11.405Z,1002.12
2017-02-17T04:52:51.894Z,1002.13
2017-02-17T04:53:32.344Z,1002.18
2017-02-17T04:54:12.791Z,1002.13
2017-02-17T04:54:53.249Z,1002.14
2017-02-17T04:55:33.701Z,1002.12
2017-02-17T04:56:14.190Z,1002.12
2017-02-17T04:56:54.640Z,1002.11
2017-02-17T04:57:35.086Z,1002.14
2017-02-17T04:58:15.564Z,1002.12
2017-02-17T04:58:55.987Z,1002.11
2017-02-17T04:59:36.441Z,1002.13
2017-02-17T05:00:16.876Z,1002.09
2017-02-17T05:00:57.327Z,1002.11
2017-02-17T05:01:37.794Z,1002.11
2017-02-17T05:02:18.268Z,1002.11
2017-02-17T05:02:58.698Z,1002.11
2017-02-17T05:03:39.149Z,1002.09
2017-02-17T05:04:19.598Z,1002.1
2017-02-17T05:05:00.052Z,1002.09
2017-02-17T05:05:40.527Z,1002.09
2017-02-17T05:06:20.966Z,1002.08
2017-02-17T05:07:01.418Z,1002.08
2017-02-17T05:07:41.879Z,1002.06
2017-02-17T05:08:22.309Z,1002.05
2017-02-17T05:09:02.781Z,1002.05
2017-02-17T05:09:43.251Z,1002.06
2017-02-17T05:10:23.661Z,1002.04
2017-02-17T05:11:04.345Z,1002.04
2017-02-17T05:11:44.594Z,1002.06
2017-02-17T05:12:25.184Z,1002.07
2017-02-17T05:13:05.655Z,1002.05
2017-02-17T05:13:46.098Z,1002.05
2017-02-17T05:14:26.593Z,1002.04
2017-02-17T05:15:07.026Z,1002.05
2017-02-17T05:15:47.486Z,1002.03
2017-02-17T05:16:27.919Z,1002.06
2017-02-17T05:17:08.368Z,1002.02
2017-02-17T05:17:48.994Z,1002.03
2017-02-17T05:18:29.448Z,1002.04
2017-02-17T05:19:09.872Z,1002.04
2017-02-17T05:19:50.324Z,1002.04
2017-02-17T05:20:30.780Z,1002.03
2017-02-17T05:21:11.256Z,1002.04
2017-02-17T05:21:51.733Z,1002
2017-02-17T05:22:32.212Z,1002.01
2017-02-17T05:23:12.663Z,1002.04
2017-02-17T05:23:53.084Z,1002.03
2017-02-17T05:24:33.625Z,1002.01
2017-02-17T05:25:14.027Z,1001.99
2017-02-17T05:25:54.475Z,1002.01
2017-02-17T05:26:34.920Z,1002
2017-02-17T05:27:15.390Z,1002.02
2017-02-17T05:29:33.498Z,1002.01
2017-02-17T05:30:13.933Z,1001.97
2017-02-17T05:30:54.385Z,1002.01
2017-02-17T05:31:35.034Z,1002
2017-02-17T05:32:15.602Z,1001.99
2017-02-17T05:32:56.085Z,1001.94
2017-02-17T05:33:36.529Z,1001.94
2017-02-17T05:34:16.984Z,1001.94
2017-02-17T05:34:57.455Z,1001.96
2017-02-17T05:35:37.927Z,1001.95
2017-02-17T05:36:18.382Z,1001.93
2017-02-17T05:36:59.131Z,1001.96
2017-02-17T05:37:39.589Z,1001.96
2017-02-17T05:38:20.040Z,1001.95
2017-02-17T05:39:00.489Z,1001.93
2017-02-17T05:39:40.941Z,1001.97
2017-02-17T05:40:21.383Z,1001.95
2017-02-17T05:41:01.815Z,1001.95
2017-02-17T05:41:42.329Z,1001.93
2017-02-17T05:42:22.756Z,1001.94
2017-02-17T05:43:03.207Z,1001.94
2017-02-17T05:43:43.657Z,1001.93
2017-02-17T05:44:24.112Z,1001.89
2017-02-17T05:45:04.572Z,1001.92
2017-02-17T05:45:45.007Z,1001.92
2017-02-17T05:46:25.450Z,1001.94
2017-02-17T05:47:05.869Z,1001.9
2017-02-17T05:47:46.351Z,1001.97
2017-02-17T05:48:26.759Z,1001.92
2017-02-17T05:49:07.466Z,1001.95
2017-02-17T05:49:48.022Z,1001.95
2017-02-17T05:50:28.575Z,1001.95
2017-02-17T05:51:08.997Z,1001.96
2017-02-17T05:51:49.477Z,1001.96
2017-02-17T05:52:29.971Z,1001.97
2017-02-17T05:53:11.053Z,1001.98
2017-02-17T05:53:51.560Z,1001.97
2017-02-17T05:54:32.200Z,1001.94
2017-02-17T05:55:13.329Z,1001.97
2017-02-17T05:55:53.812Z,1001.97
2017-02-17T05:56:34.280Z,1001.93
2017-02-17T05:57:14.723Z,1001.95
2017-02-17T05:57:55.174Z,1001.96
2017-02-17T05:58:35.636Z,1001.98
2017-02-17T05:59:16.085Z,1001.98
2017-02-17T05:59:56.521Z,1001.96
2017-02-17T06:00:37.003Z,1002.01
2017-02-17T06:01:17.437Z,1001.98
2017-02-17T06:01:57.922Z,1002.01
2017-02-17T06:02:38.366Z,1002.02
2017-02-17T06:03:18.808Z,1002.04
2017-02-17T06:03:59.370Z,1002.02
2017-02-17T06:04:39.788Z,1002.02
2017-02-17T06:05:20.226Z,1002.02
2017-02-17T06:06:00.671Z,1002.04
2017-02-17T06:06:41.123Z,1002.01
2017-02-17T06:07:21.599Z,1002.01
2017-02-17T06:08:02.350Z,1001.98
2017-02-17T06:08:43.329Z,1001.95
2017-02-17T06:09:23.807Z,1001.98
2017-02-17T06:10:04.223Z,1002
2017-02-17T06:10:44.719Z,1002
2017-02-17T06:11:25.128Z,1001.96
2017-02-17T06:12:05.578Z,1001.98
2017-02-17T06:12:46.018Z,1001.96
2017-02-17T06:13:26.454Z,1001.95
2017-02-17T06:14:06.946Z,1001.97
2017-02-17T06:14:47.370Z,1001.94
2017-02-17T06:15:27.847Z,1001.93
2017-02-17T06:16:08.288Z,1001.93
2017-02-17T06:16:48.906Z,1001.94
2017-02-17T06:17:29.444Z,1001.95
2017-02-17T06:18:09.904Z,1001.94
2017-02-17T06:18:50.330Z,1001.98
2017-02-17T06:19:30.805Z,1001.96
2017-02-17T06:20:11.222Z,1001.99
2017-02-17T06:20:51.682Z,1002
2017-02-17T06:21:32.153Z,1001.99
2017-02-17T06:22:12.584Z,1001.98
2017-02-17T06:22:53.002Z,1001.98
2017-02-17T06:23:33.469Z,1002
2017-02-17T06:24:13.890Z,1001.99
2017-02-17T06:24:54.723Z,1001.99
2017-02-17T06:25:35.521Z,1001.98
2017-02-17T06:26:16.293Z,1002
2017-02-17T06:26:57.164Z,1001.99
2017-02-17T06:27:37.663Z,1001.97
2017-02-17T06:28:18.108Z,1002
2017-02-17T06:28:58.538Z,1001.99
2017-02-17T06:29:38.972Z,1001.98
2017-02-17T06:30:19.436Z,1002.01
2017-02-17T06:30:59.879Z,1001.99
2017-02-17T06:31:40.328Z,1001.99
2017-02-17T06:32:20.833Z,1002.02
2017-02-17T06:33:01.265Z,1002
2017-02-17T06:33:41.678Z,1001.99
2017-02-17T06:34:22.130Z,1002.01
2017-02-17T06:35:02.601Z,1002.01
2017-02-17T06:35:43.038Z,1002.04
2017-02-17T06:36:23.464Z,1002.04
2017-02-17T06:37:04.216Z,1002.03
2017-02-17T06:37:44.666Z,1002.06
2017-02-17T06:38:25.158Z,1002.04
2017-02-17T06:39:05.611Z,1002.06
2017-02-17T06:39:46.090Z,1002.02
2017-02-17T06:40:26.561Z,1002.08
2017-02-17T06:41:06.996Z,1002.04
2017-02-17T06:41:47.455Z,1002.09
2017-02-17T06:42:27.968Z,1002.11
2017-02-17T06:43:08.358Z,1002.07
2017-02-17T06:43:48.815Z,1002.14
2017-02-17T06:44:29.223Z,1002.1
2017-02-17T06:45:09.705Z,1002.11
2017-02-17T06:45:50.129Z,1002.09
2017-02-17T06:46:30.574Z,1002.09
2017-02-17T06:47:11.029Z,1002.07
2017-02-17T06:47:51.568Z,1002.14
2017-02-17T06:48:32.090Z,1002.14
2017-02-17T06:49:12.511Z,1002.18
2017-02-17T06:49:52.949Z,1002.16
2017-02-17T06:50:33.382Z,1002.17
2017-02-17T06:51:13.844Z,1002.18
2017-02-17T06:51:54.289Z,1002.18
2017-02-17T06:52:34.726Z,1002.2
2017-02-17T06:53:15.242Z,1002.21
2017-02-17T06:53:55.670Z,1002.18
2017-02-17T06:54:36.206Z,1002.17
2017-02-17T06:55:16.679Z,1002.2
2017-02-17T06:55:57.120Z,1002.18
2017-02-17T06:56:37.598Z,1002.2
2017-02-17T06:57:18.061Z,1002.21
2017-02-17T06:57:58.528Z,1002.15
2017-02-17T06:58:38.976Z,1002.16
2017-02-17T06:59:19.427Z,1002.17
2017-02-17T06:59:59.871Z,1002.17
2017-02-17T07:00:40.309Z,1002.15
2017-02-17T07:01:20.935Z,1002.16
2017-02-17T07:02:01.418Z,1002.2
2017-02-17T07:02:41.796Z,1002.19
2017-02-17T07:03:22.197Z,1002.19
2017-02-17T07:04:02.667Z,1002.22
2017-02-17T07:04:43.088Z,1002.17
2017-02-17T07:05:23.766Z,1002.2
2017-02-17T07:06:04.218Z,1002.19
2017-02-17T07:06:44.721Z,1002.17
2017-02-17T07:07:25.168Z,1002.2
2017-02-17T07:08:05.491Z,1002.2
2017-02-17T07:08:45.999Z,1002.21
2017-02-17T07:09:26.441Z,1002.22
2017-02-17T07:10:06.877Z,1002.21
2017-02-17T07:10:47.337Z,1002.22
2017-02-17T07:11:27.850Z,1002.2
2017-02-17T07:12:08.337Z,1002.21
2017-02-17T07:12:48.851Z,1002.2
2017-02-17T07:13:29.300Z,1002.21
2017-02-17T07:14:09.744Z,1002.24
2017-02-17T07:14:50.143Z,1002.21
2017-02-17T07:15:30.574Z,1002.25
2017-02-17T07:16:11.007Z,1002.24
2017-02-17T07:16:51.642Z,1002.22
2017-02-17T07:17:32.127Z,1002.23
2017-02-17T07:18:12.587Z,1002.23
2017-02-17T07:18:53.077Z,1002.24
2017-02-17T07:19:33.529Z,1002.26
2017-02-17T07:20:14.004Z,1002.27
2017-02-17T07:20:54.482Z,1002.27
2017-02-17T07:21:34.963Z,1002.27
2017-02-17T07:22:15.390Z,1002.28
2017-02-17T07:22:55.821Z,1002.29
2017-02-17T07:23:36.282Z,1002.3
2017-02-17T07:24:16.845Z,1002.29
2017-02-17T07:24:57.221Z,1002.31
2017-02-17T07:25:37.622Z,1002.3
2017-02-17T07:26:18.167Z,1002.32
2017-02-17T07:26:58.631Z,1002.31
2017-02-17T07:27:39.131Z,1002.3
2017-02-17T07:28:19.695Z,1002.31
2017-02-17T07:29:00.268Z,1002.31
2017-02-17T07:29:40.758Z,1002.3
2017-02-17T07:30:21.229Z,1002.32
2017-02-17T07:31:01.657Z,1002.28
2017-02-17T07:31:42.116Z,1002.27
2017-02-17T07:32:22.820Z,1002.27
2017-02-17T07:33:03.299Z,1002.24
2017-02-17T07:33:43.728Z,1002.31
2017-02-17T07:34:24.187Z,1002.21
2017-02-17T07:35:04.631Z,1002.26
2017-02-17T07:35:45.464Z,1002.22
2017-02-17T07:36:25.963Z,1002.26
2017-02-17T07:37:08.483Z,1002.27
2017-02-17T07:37:48.655Z,1002.19
2017-02-17T07:38:29.222Z,1002.2
2017-02-17T07:39:09.625Z,1002.19
2017-02-17T07:39:50.087Z,1002.11
2017-02-17T07:40:30.504Z,1002.12
2017-02-17T07:41:10.909Z,1002.1
2017-02-17T07:41:51.397Z,1002.1
2017-02-17T07:42:31.860Z,1002.12
2017-02-17T07:43:12.287Z,1002.13
2017-02-17T07:43:52.757Z,1002.13
2017-02-17T07:44:33.214Z,1002.1
2017-02-17T07:45:13.690Z,1002.12
2017-02-17T07:45:54.127Z,1002.12
2017-02-17T07:46:34.579Z,1002.15
2017-02-17T07:47:15.005Z,1002.11
2017-02-17T07:47:55.583Z,1002.11
2017-02-17T07:48:36.290Z,1002.11
2017-02-17T07:49:16.719Z,1002.09
2017-02-17T07:49:57.362Z,1002.09
2017-02-17T07:50:37.822Z,1002.09
2017-02-17T07:51:18.273Z,1002.09
2017-02-17T07:51:58.974Z,1002.06
2017-02-17T07:52:39.418Z,1002.1
2017-02-17T07:53:19.879Z,1002.1
2017-02-17T07:54:00.298Z,1002.1
2017-02-17T07:54:40.855Z,1002.05
2017-02-17T07:55:21.194Z,1002.07
2017-02-17T07:56:01.645Z,1002.02
2017-02-17T07:56:42.073Z,1002.07
2017-02-17T07:57:22.565Z,1002.08
2017-02-17T07:58:03.033Z,1002.02
2017-02-17T07:58:43.528Z,1002.03
2017-02-17T07:59:23.919Z,1002.03
2017-02-17T08:00:04.452Z,1002.06
2017-02-17T08:00:44.889Z,1001.99
2017-02-17T08:01:25.415Z,1002.01
2017-02-17T08:02:05.850Z,1002
2017-02-17T08:02:46.319Z,1001.94
2017-02-17T08:03:26.770Z,1001.97
2017-02-17T08:04:07.192Z,1001.96
2017-02-17T08:04:47.717Z,1001.95
2017-02-17T08:05:28.192Z,1001.93
2017-02-17T08:06:08.622Z,1001.92
2017-02-17T08:06:49.085Z,1001.95
2017-02-17T08:07:29.549Z,1001.89
2017-02-17T08:08:10.006Z,1001.92
2017-02-17T08:08:50.482Z,1001.91
2017-02-17T08:09:30.937Z,1001.93
2017-02-17T08:10:12.134Z,1001.96
2017-02-17T08:10:52.580Z,1001.94
2017-02-17T08:11:33.421Z,1001.95
2017-02-17T08:12:14.421Z,1001.97
2017-02-17T08:12:55.615Z,1002.01